Time;durP1;ratioP1;P1;durP2;ratioP2;P2;SDS_P1;SDS_P2;PMS_P1;PMS_P2;Temp;Humidity;BMP_temperature;BMP_pressure;BME280_temperature;BME280_humidity;BME280_pressure;Samples;Min_cycle;Max_cycle;Signal;HPM_P1;HPM_P2
2022/07/13 00:00:03;;;;;;;7.50;2.00;;;;;;;15.75;63.28;98842.10;105920;1276;99407;-65
2022/07/13 00:02:53;;;;;;;4.50;1.80;;;;;;;15.78;63.16;98843.45;105907;1276;115395;-66
2022/07/13 00:05:21;;;;;;;2.70;1.80;;;;;;;15.81;63.27;98845.38;105913;1276;99320;-64
2022/07/13 00:07:49;;;;;;;4.00;1.70;;;;;;;15.84;63.39;98845.81;105884;1276;108370;-65
2022/07/13 00:10:17;;;;;;;4.80;1.90;;;;;;;15.84;63.24;98850.56;105827;1276;99962;-64
2022/07/13 00:12:45;;;;;;;7.70;2.20;;;;;;;15.86;63.43;98849.48;105967;1276;99379;-63
2022/07/13 00:15:13;;;;;;;4.70;1.90;;;;;;;15.88;63.48;98843.23;105869;1276;113668;-66
2022/07/13 00:17:41;;;;;;;8.40;2.00;;;;;;;15.88;63.41;98831.69;105926;1276;99448;-68
2022/07/13 00:20:10;;;;;;;5.30;2.20;;;;;;;15.86;63.47;98831.84;105781;1277;108377;-66
2022/07/13 00:22:39;;;;;;;6.50;2.20;;;;;;;15.83;63.41;98824.91;105858;1276;99217;-65
2022/07/13 00:25:08;;;;;;;4.60;1.70;;;;;;;15.84;63.40;98813.63;105864;1276;99222;-65
2022/07/13 00:27:35;;;;;;;8.40;2.40;;;;;;;15.85;63.42;98802.80;105799;1276;113245;-65
2022/07/13 00:30:04;;;;;;;4.20;2.00;;;;;;;15.85;63.56;98800.25;105876;1276;99918;-62
2022/07/13 00:32:32;;;;;;;4.60;2.10;;;;;;;15.85;63.44;98803.45;105886;1276;107885;-62
2022/07/13 00:35:00;;;;;;;6.10;2.00;;;;;;;15.83;63.38;98793.71;105856;1276;99394;-66
2022/07/13 00:37:28;;;;;;;7.30;1.90;;;;;;;15.80;63.45;98788.23;106005;1274;99201;-65
2022/07/13 00:39:56;;;;;;;5.90;2.10;;;;;;;15.78;63.58;98786.07;105877;1276;113451;-65
2022/07/13 00:42:25;;;;;;;5.70;2.40;;;;;;;15.77;63.64;98783.84;105976;1277;99634;-66
2022/07/13 00:44:52;;;;;;;6.70;2.60;;;;;;;15.77;63.61;98779.59;105988;1276;108322;-66
2022/07/13 00:47:22;;;;;;;3.20;2.20;;;;;;;15.76;63.50;98780.91;105983;1276;98930;-66
2022/07/13 00:49:50;;;;;;;7.90;2.50;;;;;;;15.73;63.56;98779.30;105989;1276;99207;-65
2022/07/13 00:52:18;;;;;;;6.60;2.70;;;;;;;15.68;63.49;98780.29;105909;1277;112420;-65
2022/07/13 00:54:46;;;;;;;9.10;2.60;;;;;;;15.64;63.52;98778.55;105847;1277;99346;-66
2022/07/13 00:57:15;;;;;;;5.80;2.30;;;;;;;15.63;63.60;98777.02;105841;1276;107794;-66
2022/07/13 00:59:43;;;;;;;3.80;1.90;;;;;;;15.61;63.48;98774.67;105862;1276;99185;-66
2022/07/13 01:02:12;;;;;;;5.70;2.40;;;;;;;15.60;63.63;98775.15;105976;1276;99223;-66
2022/07/13 01:04:41;;;;;;;10.00;2.20;;;;;;;15.61;63.53;98776.48;105857;1276;112774;-66
2022/07/13 01:07:09;;;;;;;4.90;2.00;;;;;;;15.62;63.63;98778.55;105933;1276;100071;-65
2022/07/13 01:09:39;;;;;;;4.60;1.90;;;;;;;15.62;63.56;98776.55;105825;1275;108447;-66
2022/07/13 01:12:08;;;;;;;3.80;1.60;;;;;;;15.63;63.64;98773.62;106009;1276;99352;-66
2022/07/13 01:14:38;;;;;;;2.30;1.50;;;;;;;15.64;63.58;98771.08;105984;1276;96631;-66
2022/07/13 01:17:09;;;;;;;5.80;2.00;;;;;;;15.65;63.48;98771.29;105861;1276;114065;-65
2022/07/13 01:19:37;;;;;;;5.70;2.10;;;;;;;15.67;63.55;98771.14;105869;1276;99201;-61
2022/07/13 01:22:08;;;;;;;2.30;1.60;;;;;;;15.69;63.51;98773.03;105861;1277;108342;-62
2022/07/13 01:24:37;;;;;;;2.70;1.60;;;;;;;15.71;63.57;98766.75;105843;1278;99352;-67
2022/07/13 01:27:06;;;;;;;7.60;1.90;;;;;;;15.73;63.47;98769.42;105846;1278;99218;-66
2022/07/13 01:29:36;;;;;;;8.60;2.20;;;;;;;15.75;63.50;98769.58;105848;1276;113929;-62
2022/07/13 01:32:05;;;;;;;6.20;1.90;;;;;;;15.77;63.45;98770.20;105872;1276;99733;-65
2022/07/13 01:34:34;;;;;;;6.70;1.90;;;;;;;15.82;63.31;98768.60;105906;1276;107757;-65
2022/07/13 01:37:03;;;;;;;7.60;1.80;;;;;;;15.84;63.33;98770.33;105863;1276;96609;-64
2022/07/13 01:39:31;;;;;;;2.20;1.50;;;;;;;15.86;63.31;98770.88;105848;1276;99125;-64
2022/07/13 01:42:00;;;;;;;2.10;1.40;;;;;;;15.87;63.24;98771.45;105835;1276;112340;-65
2022/07/13 01:44:29;;;;;;;2.60;1.40;;;;;;;15.89;63.11;98767.91;105865;1276;99340;-65
2022/07/13 01:46:59;;;;;;;3.90;1.50;;;;;;;15.90;63.20;98762.45;105885;1276;107778;-64
2022/07/13 01:49:27;;;;;;;3.80;1.30;;;;;;;15.92;63.12;98755.45;106034;1278;99237;-64
2022/07/13 01:51:55;;;;;;;5.00;1.40;;;;;;;15.93;63.05;98760.31;106019;1277;99331;-65
2022/07/13 01:54:23;;;;;;;3.20;1.40;;;;;;;15.95;62.99;98754.64;105870;1277;113287;-65
2022/07/13 01:56:51;;;;;;;4.20;1.70;;;;;;;15.97;63.00;98754.82;105847;1276;99841;-65
2022/07/13 01:59:19;;;;;;;7.60;2.10;;;;;;;15.98;63.09;98749.63;105926;1276;108315;-63
2022/07/13 02:01:47;;;;;;;3.30;1.30;;;;;;;16.00;62.90;98745.90;105957;1276;98915;-64
2022/07/13 02:04:15;;;;;;;7.90;1.90;;;;;;;16.03;62.74;98745.98;106022;1276;99310;-64
2022/07/13 02:06:44;;;;;;;3.10;1.40;;;;;;;16.04;62.81;98742.23;105947;1276;113402;-64
2022/07/13 02:09:12;;;;;;;4.20;1.20;;;;;;;16.06;62.76;98739.89;105996;1276;99300;-64
2022/07/13 02:11:40;;;;;;;7.50;1.30;;;;;;;16.06;62.68;98738.31;105988;1276;108236;-65
2022/07/13 02:14:09;;;;;;;3.50;1.20;;;;;;;16.05;62.69;98738.88;105989;1276;96655;-65
2022/07/13 02:16:37;;;;;;;6.00;1.70;;;;;;;16.05;62.61;98737.90;105988;1276;99234;-64
2022/07/13 02:19:05;;;;;;;16.60;2.20;;;;;;;16.02;62.64;98729.59;106016;1277;113374;-61
2022/07/13 02:21:33;;;;;;;6.90;1.40;;;;;;;16.00;62.48;98731.21;106003;1278;98704;-65
2022/07/13 02:24:01;;;;;;;7.10;1.70;;;;;;;15.99;62.50;98725.97;105947;1278;107388;-64
2022/07/13 02:26:29;;;;;;;6.00;1.30;;;;;;;15.97;62.23;98722.54;105934;1278;99194;-65
2022/07/13 02:28:58;;;;;;;4.20;1.30;;;;;;;15.96;62.37;98724.67;106009;1278;99209;-65
2022/07/13 02:31:27;;;;;;;6.90;1.60;;;;;;;15.94;62.25;98723.05;105962;1278;112325;-65
2022/07/13 02:33:56;;;;;;;4.40;1.50;;;;;;;15.95;62.23;98719.60;106008;1278;99232;-64
2022/07/13 02:36:23;;;;;;;5.80;1.40;;;;;;;15.96;62.22;98719.14;105995;1279;108347;-64
2022/07/13 02:38:52;;;;;;;1.80;1.00;;;;;;;15.97;62.16;98719.52;105984;1279;99273;-65
2022/07/13 02:41:21;;;;;;;3.40;1.00;;;;;;;15.98;62.03;98718.35;106021;1279;100359;-65
2022/07/13 02:43:49;;;;;;;6.60;1.80;;;;;;;16.00;62.12;98714.61;105875;1279;113375;-64
2022/07/13 02:46:18;;;;;;;2.70;1.40;;;;;;;16.02;62.11;98715.86;105918;1278;99333;-64
2022/07/13 02:48:47;;;;;;;2.00;1.10;;;;;;;16.03;61.98;98720.71;105971;1277;108396;-64
2022/07/13 02:51:15;;;;;;;4.70;1.30;;;;;;;16.06;61.96;98718.77;105985;1279;99348;-67
2022/07/13 02:53:44;;;;;;;4.00;1.70;;;;;;;16.08;61.84;98721.30;106019;1276;99192;-66
2022/07/13 02:56:12;;;;;;;5.80;1.30;;;;;;;16.10;62.02;98720.52;105967;1276;113323;-63
2022/07/13 02:58:41;;;;;;;10.30;1.60;;;;;;;16.13;61.83;98722.82;105947;1276;98250;-65
2022/07/13 03:01:11;;;;;;;7.40;1.90;;;;;;;16.15;61.66;98723.42;105914;1276;108211;-65
2022/07/13 03:03:40;;;;;;;4.70;1.40;;;;;;;16.17;61.63;98721.45;105943;1278;99210;-66
2022/07/13 03:06:08;;;;;;;3.40;2.20;;;;;;;16.18;61.74;98721.13;106006;1279;99309;-66
2022/07/13 03:08:36;;;;;;;7.70;2.00;;;;;;;16.20;61.73;98721.11;105916;1277;113440;-66
2022/07/13 03:11:04;;;;;;;5.90;1.30;;;;;;;16.22;61.82;98718.27;105928;1276;98021;-65
2022/07/13 03:13:32;;;;;;;4.90;1.50;;;;;;;16.24;61.58;98720.06;105979;1276;109152;-64
2022/07/13 03:16:01;;;;;;;4.10;1.30;;;;;;;16.25;61.63;98721.61;105989;1278;99639;-64
2022/07/13 03:18:29;;;;;;;5.50;2.00;;;;;;;16.24;61.53;98723.79;105972;1278;99211;-64
2022/07/13 03:20:58;;;;;;;3.00;1.30;;;;;;;16.25;61.32;98719.30;106004;1278;113322;-65
2022/07/13 03:23:28;;;;;;;5.60;1.80;;;;;;;16.25;61.44;98725.14;105998;1278;98389;-66
2022/07/13 03:25:57;;;;;;;3.00;1.60;;;;;;;16.27;61.13;98719.45;106030;1276;108370;-67
2022/07/13 03:28:26;;;;;;;3.20;1.10;;;;;;;16.28;61.39;98723.44;105939;1276;99179;-64
2022/07/13 03:30:54;;;;;;;6.10;2.00;;;;;;;16.29;61.31;98724.89;105845;1276;96611;-65
2022/07/13 03:33:22;;;;;;;4.70;1.20;;;;;;;16.30;61.06;98722.61;105856;1276;113737;-65
2022/07/13 03:35:50;;;;;;;6.70;1.30;;;;;;;16.32;61.33;98721.75;106052;1276;99112;-65
2022/07/13 03:38:18;;;;;;;8.30;2.60;;;;;;;16.32;60.98;98722.56;105846;1276;108598;-66
2022/07/13 03:40:48;;;;;;;5.90;1.80;;;;;;;16.33;61.05;98720.69;105869;1277;99297;-66
2022/07/13 03:43:16;;;;;;;5.20;1.80;;;;;;;16.33;61.15;98716.06;105860;1277;99137;-66
2022/07/13 03:45:46;;;;;;;4.80;1.70;;;;;;;16.32;60.87;98716.05;105826;1276;113400;-68
2022/07/13 03:48:16;;;;;;;6.00;1.60;;;;;;;16.31;60.93;98712.52;104984;1277;1224467;-67
2022/07/13 03:50:48;;;;;;;4.10;1.80;;;;;;;16.32;60.93;98714.55;105934;1279;108287;-68
2022/07/13 03:53:16;;;;;;;3.60;1.60;;;;;;;16.33;61.06;98714.48;105932;1279;99247;-65
2022/07/13 03:55:45;;;;;;;4.50;1.80;;;;;;;16.33;60.93;98713.08;106004;1278;99211;-65
2022/07/13 03:58:14;;;;;;;7.40;1.80;;;;;;;16.33;60.56;98721.23;105887;1276;113325;-64
2022/07/13 04:00:43;;;;;;;2.70;1.30;;;;;;;16.33;60.73;98722.20;105862;1278;99142;-65
2022/07/13 04:03:11;;;;;;;6.90;3.00;;;;;;;16.31;60.59;98727.19;105870;1277;108387;-67
2022/07/13 04:05:43;;;;;;;7.80;1.70;;;;;;;16.30;60.54;98729.47;105859;1278;96988;-66
2022/07/13 04:08:11;;;;;;;6.20;1.60;;;;;;;16.29;60.59;98729.80;105877;1278;97746;-67
2022/07/13 04:10:39;;;;;;;2.70;1.60;;;;;;;16.27;60.56;98734.08;105843;1276;113408;-69
2022/07/13 04:13:08;;;;;;;5.50;1.80;;;;;;;16.25;60.49;98735.16;105881;1276;96551;-67
2022/07/13 04:15:39;;;;;;;7.10;1.90;;;;;;;16.24;60.60;98734.76;105912;1276;106949;-68
2022/07/13 04:18:08;;;;;;;7.10;2.10;;;;;;;16.23;60.46;98735.52;105879;1278;99324;-68
2022/07/13 04:20:37;;;;;;;6.30;1.60;;;;;;;16.23;60.53;98743.42;105892;1276;99226;-66
2022/07/13 04:23:05;;;;;;;5.60;1.50;;;;;;;16.20;60.39;98739.70;105876;1279;113373;-66
2022/07/13 04:25:32;;;;;;;4.80;1.80;;;;;;;16.19;60.49;98745.38;105888;1277;99330;-66
2022/07/13 04:28:00;;;;;;;8.20;1.90;;;;;;;16.18;60.51;98742.94;105853;1277;108289;-66
2022/07/13 04:30:28;;;;;;;3.60;2.00;;;;;;;16.16;60.20;98744.45;105958;1279;99228;-65
2022/07/13 04:32:57;;;;;;;9.10;1.90;;;;;;;16.14;60.46;98745.36;105956;1279;98416;-66
2022/07/13 04:35:25;;;;;;;3.70;1.70;;;;;;;16.16;60.39;98745.19;105878;1279;113032;-69
2022/07/13 04:37:53;;;;;;;3.30;1.80;;;;;;;16.19;60.44;98748.98;106028;1276;100132;-65
2022/07/13 04:40:22;;;;;;;6.10;1.90;;;;;;;16.20;60.53;98744.89;105982;1278;108402;-67
2022/07/13 04:42:50;;;;;;;2.00;1.60;;;;;;;16.20;60.50;98747.13;105912;1278;96655;-67
2022/07/13 04:45:21;;;;;;;6.30;1.90;;;;;;;16.17;60.41;98745.73;106003;1278;99241;-67
2022/07/13 04:47:50;;;;;;;7.40;2.00;;;;;;;16.14;60.44;98747.69;105972;1279;113414;-68
2022/07/13 04:50:19;;;;;;;8.10;2.20;;;;;;;16.13;60.46;98744.25;105903;1276;98267;-70
2022/07/13 04:52:47;;;;;;;5.30;1.60;;;;;;;16.11;60.47;98748.53;105906;1276;108424;-69
2022/07/13 04:55:18;;;;;;;3.50;1.50;;;;;;;16.11;60.46;98745.88;105909;1276;99135;-68
2022/07/13 04:57:48;;;;;;;4.60;1.90;;;;;;;16.11;60.50;98751.58;105960;1276;99205;-69
2022/07/13 05:00:16;;;;;;;5.50;1.90;;;;;;;16.12;60.45;98745.98;105850;1276;113199;-68
2022/07/13 05:02:46;;;;;;;5.80;2.00;;;;;;;16.11;60.52;98745.66;105834;1276;99261;-67
2022/07/13 05:05:15;;;;;;;5.80;2.00;;;;;;;16.13;60.54;98748.52;105881;1277;108412;-68
2022/07/13 05:07:44;;;;;;;6.50;1.80;;;;;;;16.14;60.67;98752.55;105946;1276;99779;-68
2022/07/13 05:10:13;;;;;;;5.20;1.80;;;;;;;16.14;60.71;98754.84;105983;1276;96726;-68
2022/07/13 05:12:42;;;;;;;4.30;1.90;;;;;;;16.13;60.66;98755.32;105880;1276;113352;-69
2022/07/13 05:15:11;;;;;;;6.20;2.30;;;;;;;16.14;60.61;98757.38;105802;1276;99299;-68
2022/07/13 05:17:39;;;;;;;5.50;2.20;;;;;;;16.15;60.64;98757.59;105926;1276;108403;-66
2022/07/13 05:20:10;;;;;;;4.50;1.80;;;;;;;16.15;60.68;98761.92;105944;1276;99250;-69
2022/07/13 05:22:39;;;;;;;8.70;3.00;;;;;;;16.15;60.89;98763.66;105889;1276;99289;-70
2022/07/13 05:25:07;;;;;;;3.30;1.80;;;;;;;16.16;60.86;98762.73;105855;1276;113587;-69
2022/07/13 05:27:35;;;;;;;7.20;2.00;;;;;;;16.16;60.81;98763.93;105839;1276;99332;-68
2022/07/13 05:30:03;;;;;;;5.80;2.00;;;;;;;16.18;60.92;98759.29;105753;1276;108339;-70
2022/07/13 05:32:33;;;;;;;3.60;1.80;;;;;;;16.19;60.92;98763.48;105869;1276;99305;-69
2022/07/13 05:35:01;;;;;;;9.60;2.10;;;;;;;16.21;60.85;98763.79;105925;1276;99257;-67
2022/07/13 05:37:30;;;;;;;6.90;2.40;;;;;;;16.22;60.80;98764.73;105673;1276;113434;-68
2022/07/13 05:39:58;;;;;;;5.00;1.90;;;;;;;16.25;61.04;98757.17;105740;1277;99330;-69
2022/07/13 05:42:28;;;;;;;4.60;2.00;;;;;;;16.27;61.06;98766.20;105805;1277;108479;-69
2022/07/13 05:44:58;;;;;;;7.70;2.30;;;;;;;16.30;61.07;98762.23;105757;1276;99321;-68
2022/07/13 05:47:25;;;;;;;9.40;2.70;;;;;;;16.32;61.08;98763.82;105795;1276;99304;-68
2022/07/13 05:49:53;;;;;;;4.90;1.90;;;;;;;16.34;61.21;98759.04;105960;1277;113464;-66
2022/07/13 05:52:22;;;;;;;6.50;2.60;;;;;;;16.39;61.15;98756.15;105936;1279;96593;-68
2022/07/13 05:54:51;;;;;;;4.30;2.00;;;;;;;16.43;61.15;98763.17;105925;1276;108321;-69
2022/07/13 05:57:19;;;;;;;6.30;2.50;;;;;;;16.49;61.23;98759.06;105974;1276;99239;-69
2022/07/13 05:59:47;;;;;;;15.30;2.60;;;;;;;16.55;61.26;98761.33;105929;1276;99357;-69
2022/07/13 06:02:15;;;;;;;4.50;1.80;;;;;;;16.61;61.22;98756.20;105905;1277;113263;-70
2022/07/13 06:04:45;;;;;;;5.90;2.10;;;;;;;16.67;61.29;98764.14;105856;1276;97717;-69
2022/07/13 06:07:13;;;;;;;3.00;1.90;;;;;;;16.74;61.25;98761.85;105877;1276;107691;-68
2022/07/13 06:09:42;;;;;;;3.00;1.90;;;;;;;16.80;61.18;98761.41;105865;1277;96666;-68
2022/07/13 06:12:10;;;;;;;8.60;2.70;;;;;;;16.86;61.49;98762.06;105887;1277;99179;-67
2022/07/13 06:14:40;;;;;;;6.30;2.10;;;;;;;16.92;61.30;98755.40;105890;1276;112309;-71
2022/07/13 06:17:08;;;;;;;5.80;2.20;;;;;;;16.97;61.44;98755.24;105896;1276;99307;-68
2022/07/13 06:19:37;;;;;;;4.70;2.10;;;;;;;17.02;61.59;98757.60;105884;1276;108614;-72
2022/07/13 06:22:05;;;;;;;7.80;2.90;;;;;;;17.07;61.40;98758.27;105880;1276;98355;-68
2022/07/13 06:24:34;;;;;;;6.20;2.20;;;;;;;17.16;61.44;98757.66;105910;1277;99321;-68
2022/07/13 06:27:02;;;;;;;7.90;2.50;;;;;;;17.26;61.61;98754.37;105905;1279;113442;-68
2022/07/13 06:29:30;;;;;;;3.60;2.00;;;;;;;17.36;61.55;98764.00;105854;1277;99319;-68
2022/07/13 06:31:58;;;;;;;7.10;2.40;;;;;;;17.49;61.53;98762.71;105849;1276;108431;-68
2022/07/13 06:34:27;;;;;;;5.40;1.90;;;;;;;17.55;61.65;98769.70;105886;1276;99301;-67
2022/07/13 06:36:56;;;;;;;6.70;2.20;;;;;;;17.62;61.65;98769.23;107689;1276;97441;-68
2022/07/13 06:39:24;;;;;;;7.50;2.10;;;;;;;17.69;61.32;98768.77;106190;1276;112719;-67
2022/07/13 06:41:54;;;;;;;5.70;2.30;;;;;;;17.78;61.57;98766.36;105684;1279;99302;-68
2022/07/13 06:44:22;;;;;;;5.10;2.20;;;;;;;17.87;61.56;98767.80;105966;1276;108975;-68
2022/07/13 06:46:50;;;;;;;9.10;2.40;;;;;;;17.99;61.62;98773.89;105768;1277;99301;-67
2022/07/13 06:49:19;;;;;;;7.00;2.20;;;;;;;18.15;61.55;98770.73;105802;1276;99150;-68
2022/07/13 06:51:50;;;;;;;3.60;2.10;;;;;;;18.26;61.62;98770.82;105921;1278;113846;-67
2022/07/13 06:54:17;;;;;;;7.70;2.40;;;;;;;18.34;61.55;98765.09;105946;1277;96669;-71
2022/07/13 06:56:45;;;;;;;3.60;1.80;;;;;;;18.45;61.63;98773.39;105924;1277;108311;-69
2022/07/13 06:59:15;;;;;;;9.20;2.40;;;;;;;18.57;61.54;98768.69;105922;1276;99258;-67
2022/07/13 07:01:44;;;;;;;8.60;2.30;;;;;;;18.65;61.45;98765.85;105966;1276;99212;-67
2022/07/13 07:04:15;;;;;;;5.20;2.30;;;;;;;18.73;61.26;98770.98;105943;1277;113089;-69
2022/07/13 07:06:43;;;;;;;8.70;2.40;;;;;;;18.79;61.37;98771.40;105966;1276;96621;-69
2022/07/13 07:09:12;;;;;;;11.90;2.20;;;;;;;18.82;61.27;98770.73;105967;1276;108468;-65
2022/07/13 07:11:40;;;;;;;3.90;2.20;;;;;;;18.88;61.45;98780.07;105978;1276;97750;-67
2022/07/13 07:14:10;;;;;;;6.00;2.20;;;;;;;18.93;61.26;98775.86;105921;1277;96622;-67
2022/07/13 07:16:38;;;;;;;8.30;2.20;;;;;;;18.99;61.25;98777.64;105861;1277;113545;-68
2022/07/13 07:19:09;;;;;;;4.60;2.10;;;;;;;19.11;60.98;98779.44;105804;1276;99331;-66
2022/07/13 07:21:54;;;;;;;3.70;1.90;;;;;;;19.10;60.99;98775.04;105855;1276;108294;-67
2022/07/13 07:24:23;;;;;;;5.10;1.90;;;;;;;19.06;60.96;98779.41;105903;1277;99282;-66
2022/07/13 07:26:51;;;;;;;3.80;2.00;;;;;;;19.04;60.90;98774.77;105975;1276;99358;-67
2022/07/13 07:29:22;;;;;;;6.60;2.20;;;;;;;19.02;60.84;98770.36;105850;1278;113141;-67
2022/07/13 07:31:52;;;;;;;5.30;2.40;;;;;;;19.00;60.84;98776.34;105852;1277;99198;-67
2022/07/13 07:34:20;;;;;;;5.70;2.50;;;;;;;19.00;60.90;98770.23;105835;1276;106725;-67
2022/07/13 07:36:48;;;;;;;5.80;2.50;;;;;;;18.98;60.83;98780.88;105820;1276;99343;-66
2022/07/13 07:39:17;;;;;;;5.00;2.20;;;;;;;18.98;60.80;98778.19;105900;1277;99220;-68
2022/07/13 07:41:47;;;;;;;6.40;2.80;;;;;;;18.99;60.74;98775.66;105880;1277;113373;-67
2022/07/13 07:44:18;;;;;;;8.00;3.00;;;;;;;19.02;60.78;98776.55;105911;1278;99254;-67
2022/07/13 07:46:54;;;;;;;6.50;2.10;;;;;;;19.06;60.58;98781.54;105864;1276;108432;-66
2022/07/13 07:49:22;;;;;;;3.80;2.20;;;;;;;19.12;60.59;98777.38;105900;1276;96677;-66
2022/07/13 07:51:52;;;;;;;4.80;2.00;;;;;;;19.20;60.53;98778.25;105855;1277;99316;-65
2022/07/13 07:54:40;;;;;;;5.60;2.50;;;;;;;19.28;60.50;98781.59;105852;1277;113355;-67
2022/07/13 07:57:08;;;;;;;8.80;2.20;;;;;;;19.43;60.42;98778.69;105786;1278;99166;-68
2022/07/13 07:59:38;;;;;;;10.20;3.70;;;;;;;19.71;60.28;98777.55;105802;1278;108439;-65
2022/07/13 08:02:12;;;;;;;5.80;2.00;;;;;;;20.18;60.01;98778.88;105789;1276;96660;-68
2022/07/13 08:04:40;;;;;;;5.90;2.10;;;;;;;20.74;59.91;98780.38;105823;1276;96580;-68
2022/07/13 08:07:09;;;;;;;14.40;3.00;;;;;;;21.56;59.37;98782.07;105790;1279;113424;-67
2022/07/13 08:09:38;;;;;;;7.60;2.20;;;;;;;22.76;58.43;98780.30;105809;1277;99087;-67
2022/07/13 08:12:06;;;;;;;6.10;2.30;;;;;;;23.79;58.55;98773.11;105887;1277;108427;-68
2022/07/13 08:14:36;;;;;;;4.70;2.10;;;;;;;24.22;59.26;98776.35;105956;1277;99325;-67
2022/07/13 08:17:04;;;;;;;7.00;2.00;;;;;;;24.25;59.23;98781.20;105952;1276;96560;-68
2022/07/13 08:19:32;;;;;;;4.50;2.10;;;;;;;24.24;59.37;98781.29;105854;1276;113347;-71
2022/07/13 08:22:09;;;;;;;6.40;2.60;;;;;;;24.33;59.03;98783.55;105900;1276;99365;-67
2022/07/13 08:24:37;;;;;;;9.60;2.70;;;;;;;24.31;59.01;98782.41;105858;1279;108332;-66
2022/07/13 08:27:06;;;;;;;4.70;2.30;;;;;;;24.46;58.62;98784.73;105835;1277;98476;-68
2022/07/13 08:29:35;;;;;;;5.60;2.20;;;;;;;24.50;58.18;98788.48;105881;1277;96718;-67
2022/07/13 08:32:04;;;;;;;4.00;1.80;;;;;;;24.48;58.15;98778.95;105889;1276;113464;-67
2022/07/13 08:40:13;;;;;;;4.90;2.20;;;;;;;24.63;57.43;98787.64;105860;1277;99284;-66
2022/07/13 08:42:40;;;;;;;3.70;1.90;;;;;;;24.65;57.13;98787.98;105885;1278;98356;-68
2022/07/13 08:45:09;;;;;;;4.40;2.00;;;;;;;25.16;56.52;98791.17;105828;1276;113252;-68
2022/07/13 08:47:40;;;;;;;6.10;2.10;;;;;;;25.87;56.31;98789.44;105881;1277;99259;-67
2022/07/13 08:50:10;;;;;;;8.20;2.40;;;;;;;26.44;56.24;98782.83;105868;1279;107823;-68
2022/07/13 08:52:42;;;;;;;5.10;1.70;;;;;;;26.79;55.80;98789.21;105867;1277;99346;-67
2022/07/13 08:55:10;;;;;;;5.90;2.20;;;;;;;27.17;55.97;98791.98;105936;1276;99190;-67
2022/07/13 08:57:40;;;;;;;6.70;2.00;;;;;;;27.41;55.63;98790.18;105847;1276;113177;-68
2022/07/13 09:00:13;;;;;;;4.70;1.70;;;;;;;27.55;55.35;98779.88;105914;1280;99116;-67
2022/07/13 09:02:41;;;;;;;6.00;2.00;;;;;;;27.36;54.96;98785.83;105951;1276;108360;-66
2022/07/13 09:05:11;;;;;;;4.50;1.80;;;;;;;27.25;54.79;98780.84;105886;1276;96744;-67
2022/07/13 09:07:39;;;;;;;6.90;1.90;;;;;;;27.31;54.53;98781.95;105868;1277;99315;-67
2022/07/13 09:10:08;;;;;;;4.30;2.00;;;;;;;27.45;54.25;98782.80;105884;1277;113393;-67
2022/07/13 09:12:36;;;;;;;4.00;2.00;;;;;;;27.77;54.11;98781.10;105876;1277;99094;-64
2022/07/13 09:15:07;;;;;;;2.70;1.60;;;;;;;27.72;53.64;98789.58;105959;1277;108404;-67
2022/07/13 09:17:43;;;;;;;8.40;1.80;;;;;;;27.21;53.66;98779.88;105942;1277;99167;-66
2022/07/13 09:20:15;;;;;;;3.80;1.60;;;;;;;26.78;53.45;98788.84;105889;1277;99346;-67
2022/07/13 09:22:52;;;;;;;6.30;1.90;;;;;;;26.40;52.69;98793.34;105919;1278;113105;-67
2022/07/13 09:25:34;;;;;;;3.30;1.40;;;;;;;26.18;53.04;98786.38;105936;1277;99541;-66
2022/07/13 09:28:08;;;;;;;7.80;1.90;;;;;;;25.92;52.76;98789.48;105946;1278;108585;-66
2022/07/13 09:30:41;;;;;;;6.80;2.30;;;;;;;25.72;52.27;98782.48;105919;1277;99329;-68
2022/07/13 09:33:11;;;;;;;9.40;2.40;;;;;;;25.67;52.47;98783.56;105829;1278;97904;-67
2022/07/13 09:35:39;;;;;;;6.90;2.50;;;;;;;25.76;52.20;98775.84;105881;1277;112742;-67
2022/07/13 09:38:07;;;;;;;4.00;1.90;;;;;;;25.66;52.07;98778.58;105856;1277;99148;-68
2022/07/13 09:40:35;;;;;;;9.70;2.40;;;;;;;25.40;51.87;98785.16;105877;1278;108183;-67
2022/07/13 09:46:09;;;;;;;5.00;1.80;;;;;;;25.13;51.68;98786.33;105964;1277;99187;-68
2022/07/13 09:48:39;;;;;;;4.50;1.70;;;;;;;24.99;51.70;98781.30;105947;1277;113657;-67
2022/07/13 09:51:09;;;;;;;3.10;1.90;;;;;;;24.92;51.44;98780.44;105983;1278;99995;-68
2022/07/13 09:53:37;;;;;;;8.90;1.90;;;;;;;24.85;51.42;98773.30;105878;1278;107764;-67
2022/07/13 09:56:10;;;;;;;4.30;1.50;;;;;;;24.92;51.39;98765.23;105860;1277;99257;-67
2022/07/13 09:58:40;;;;;;;5.50;1.80;;;;;;;24.90;51.21;98768.42;105869;1277;99339;-66
2022/07/13 10:01:09;;;;;;;6.40;1.50;;;;;;;24.95;50.91;98773.35;105859;1278;112759;-67
2022/07/13 10:03:40;;;;;;;11.70;2.40;;;;;;;25.07;50.70;98775.79;105852;1277;99343;-67
2022/07/13 10:06:15;;;;;;;6.30;2.00;;;;;;;25.20;50.56;98777.02;105852;1278;106478;-67
2022/07/13 10:08:44;;;;;;;9.00;1.80;;;;;;;25.28;50.50;98771.63;105843;1277;98358;-68
2022/07/13 10:11:14;;;;;;;5.50;1.80;;;;;;;25.34;50.44;98775.80;105842;1277;99789;-68
2022/07/13 10:13:44;;;;;;;3.70;1.60;;;;;;;25.36;50.26;98781.69;105976;1277;112618;-68
2022/07/13 10:16:12;;;;;;;5.00;1.80;;;;;;;25.24;49.62;98782.11;105878;1278;99207;-67
2022/07/13 10:18:42;;;;;;;2.60;1.20;;;;;;;25.11;49.91;98788.59;105892;1278;108325;-68
2022/07/13 10:21:33;;;;;;;5.50;1.80;;;;;;;25.00;49.55;98792.85;105936;1277;99294;-68
2022/07/13 10:24:03;;;;;;;6.30;1.70;;;;;;;24.93;49.46;98785.79;105966;1278;99204;-70
2022/07/13 10:26:31;;;;;;;5.80;1.80;;;;;;;24.89;49.57;98784.29;105893;1277;112681;-67
2022/07/13 10:29:10;;;;;;;5.40;1.70;;;;;;;24.80;49.19;98786.70;105911;1278;99205;-65
2022/07/13 10:31:43;;;;;;;6.30;1.50;;;;;;;24.73;49.08;98783.84;105853;1278;106988;-67
2022/07/13 10:34:13;;;;;;;5.20;1.60;;;;;;;24.65;48.97;98781.02;105900;1277;99333;-64
2022/07/13 10:36:47;;;;;;;4.90;1.70;;;;;;;24.61;48.83;98780.73;105874;1277;99329;-66
2022/07/13 10:39:19;;;;;;;3.50;1.70;;;;;;;24.47;48.08;98777.65;105833;1277;113198;-67
2022/07/13 10:42:04;;;;;;;6.50;2.10;;;;;;;24.35;48.35;98786.69;105857;1277;99215;-67
2022/07/13 10:44:35;;;;;;;5.30;1.70;;;;;;;24.32;48.00;98781.63;105859;1277;107751;-67
2022/07/13 10:47:08;;;;;;;4.60;1.40;;;;;;;24.34;47.76;98782.50;105918;1277;99201;-68
2022/07/13 10:49:44;;;;;;;6.10;1.80;;;;;;;24.39;48.02;98768.00;105904;1277;99319;-68
2022/07/13 10:52:20;;;;;;;6.20;1.60;;;;;;;24.48;48.05;98782.04;105890;1277;113177;-66
2022/07/13 10:55:05;;;;;;;5.00;1.90;;;;;;;24.57;47.90;98792.04;105828;1280;99283;-68
2022/07/13 10:57:44;;;;;;;8.60;2.00;;;;;;;24.62;47.58;98790.45;105883;1278;108025;-68
2022/07/13 11:00:23;;;;;;;2.00;1.40;;;;;;;24.59;47.45;98784.14;105875;1277;98320;-67
2022/07/13 11:03:05;;;;;;;4.30;1.70;;;;;;;24.59;47.61;98781.84;105923;1277;97805;-67
2022/07/13 11:05:35;;;;;;;5.00;1.70;;;;;;;24.66;47.61;98787.19;105941;1277;113332;-67
2022/07/13 11:08:16;;;;;;;5.70;1.70;;;;;;;24.76;47.65;98787.54;105973;1277;99029;-67
2022/07/13 11:10:53;;;;;;;6.40;1.80;;;;;;;24.88;47.42;98800.58;105914;1277;106780;-67
2022/07/13 11:13:27;;;;;;;6.10;1.70;;;;;;;24.90;47.27;98797.77;105855;1277;96731;-66
2022/07/13 11:15:56;;;;;;;3.90;1.80;;;;;;;24.92;47.20;98796.77;105916;1277;99131;-67
2022/07/13 11:18:28;;;;;;;5.40;1.70;;;;;;;24.94;46.71;98798.60;105883;1277;113420;-68
2022/07/13 11:21:01;;;;;;;5.70;2.10;;;;;;;24.92;46.78;98788.02;105987;1278;96663;-66
2022/07/13 11:26:42;;;;;;;4.40;1.60;;;;;;;25.00;46.80;98793.31;105947;1278;99387;-68
2022/07/13 11:29:32;;;;;;;5.70;2.00;;;;;;;24.97;46.70;98790.09;105855;1277;99285;-68
2022/07/13 11:32:04;;;;;;;7.20;1.90;;;;;;;24.97;46.76;98797.54;105843;1277;113583;-67
2022/07/13 11:34:37;;;;;;;4.20;1.60;;;;;;;25.00;46.53;98798.04;105949;1277;99311;-69
2022/07/13 11:37:05;;;;;;;5.80;1.90;;;;;;;25.04;46.55;98792.14;105908;1277;107919;-69
2022/07/13 11:39:36;;;;;;;5.60;2.20;;;;;;;25.04;46.34;98783.76;105914;1277;96665;-66
2022/07/13 11:42:07;;;;;;;6.00;1.90;;;;;;;25.03;46.30;98785.19;105958;1277;99286;-67
2022/07/13 11:44:36;;;;;;;5.70;1.70;;;;;;;24.98;46.04;98785.98;105942;1277;112796;-68